createdAt,value
2023-02-26T00:00:15.312Z,29.96
2023-02-26T00:02:46.084Z,29.91
2023-02-26T00:05:14.034Z,29.98
2023-02-26T00:07:42.042Z,30.08
2023-02-26T00:10:11.880Z,29.94
2023-02-26T00:12:40.276Z,30.15
2023-02-26T00:15:13.277Z,30.05
2023-02-26T00:17:45.832Z,29.87
2023-02-26T00:20:16.869Z,29.84
2023-02-26T00:22:45.367Z,29.71
2023-02-26T00:25:13.590Z,30.05
2023-02-26T00:27:42.286Z,29.96
2023-02-26T00:30:11.816Z,30.08
2023-02-26T00:32:40.716Z,30.05
2023-02-26T00:35:12.718Z,29.75
2023-02-26T00:37:51.922Z,29.77
2023-02-26T00:40:22.570Z,30.00
2023-02-26T00:42:51.049Z,29.61
2023-02-26T00:45:19.740Z,29.67
2023-02-26T00:47:50.600Z,29.93
2023-02-26T00:50:21.445Z,29.86
2023-02-26T00:52:58.449Z,29.75
2023-02-26T00:55:28.370Z,29.89
2023-02-26T00:57:56.470Z,30.10
2023-02-26T01:00:24.748Z,29.63
2023-02-26T01:02:53.182Z,29.68
2023-02-26T01:05:23.264Z,30.14
2023-02-26T01:07:55.828Z,30.06
2023-02-26T01:10:24.848Z,30.10
2023-02-26T01:12:53.373Z,29.81
2023-02-26T01:15:22.049Z,29.59
2023-02-26T01:17:52.961Z,29.98
2023-02-26T01:20:23.431Z,30.00
2023-02-26T01:22:54.100Z,29.94
2023-02-26T01:25:25.102Z,29.53
2023-02-26T01:27:53.750Z,29.83
2023-02-26T01:30:22.799Z,29.74
2023-02-26T01:32:53.395Z,29.85
2023-02-26T01:35:36.841Z,30.01
2023-02-26T01:38:05.694Z,29.46
2023-02-26T01:40:55.222Z,29.83
2023-02-26T01:43:26.795Z,29.53
2023-02-26T01:45:58.166Z,29.46
2023-02-26T01:48:34.071Z,29.53
2023-02-26T01:51:03.486Z,29.97
2023-02-26T01:53:31.482Z,29.99
2023-02-26T01:56:01.299Z,29.80
2023-02-26T01:58:32.220Z,29.87
2023-02-26T02:01:00.142Z,29.98
2023-02-26T02:03:28.280Z,29.71
2023-02-26T02:05:57.805Z,29.81
2023-02-26T02:08:27.421Z,29.84
2023-02-26T02:10:55.430Z,29.40
2023-02-26T02:13:31.988Z,29.42
2023-02-26T02:16:04.936Z,29.39
2023-02-26T02:18:37.162Z,29.54
2023-02-26T02:21:38.430Z,29.78
2023-02-26T02:24:10.023Z,29.75
2023-02-26T02:26:46.730Z,29.87
2023-02-26T02:29:44.647Z,29.40
2023-02-26T02:32:15.198Z,29.66
2023-02-26T02:34:46.012Z,29.59
2023-02-26T02:37:17.643Z,29.74
2023-02-26T02:39:47.814Z,29.64
2023-02-26T02:42:22.627Z,29.36
2023-02-26T02:44:52.372Z,29.98
2023-02-26T02:47:21.732Z,29.75
2023-02-26T02:49:51.500Z,29.62
2023-02-26T02:52:22.442Z,29.33
2023-02-26T02:54:52.441Z,29.82
2023-02-26T02:57:22.458Z,29.42
2023-02-26T02:59:52.786Z,29.62
2023-02-26T03:02:24.114Z,29.44
2023-02-26T03:04:52.040Z,29.86
2023-02-26T03:07:19.950Z,29.63
2023-02-26T03:09:48.416Z,29.55
2023-02-26T03:12:16.420Z,29.63
2023-02-26T03:14:44.431Z,29.31
2023-02-26T03:17:24.744Z,29.72
2023-02-26T03:20:01.334Z,29.63
2023-02-26T03:22:32.840Z,29.59
2023-02-26T03:25:03.087Z,29.62
2023-02-26T03:27:32.772Z,29.63
2023-02-26T03:30:02.976Z,29.53
2023-02-26T03:32:33.823Z,29.60
2023-02-26T03:35:04.153Z,29.58
2023-02-26T03:37:34.161Z,29.47
2023-02-26T03:40:05.730Z,29.60
2023-02-26T03:42:35.851Z,29.16
2023-02-26T03:45:06.160Z,29.71
2023-02-26T03:47:38.879Z,29.65
2023-02-26T03:50:08.784Z,29.79
2023-02-26T03:52:38.958Z,29.37
2023-02-26T03:55:09.260Z,29.31
2023-02-26T03:57:37.175Z,29.22
2023-02-26T04:00:06.103Z,29.54
2023-02-26T04:02:36.266Z,29.81
2023-02-26T04:05:07.991Z,29.18
2023-02-26T04:07:35.908Z,29.41
2023-02-26T04:10:04.797Z,29.30
2023-02-26T04:12:32.676Z,29.54
2023-02-26T04:15:00.544Z,29.19
2023-02-26T04:17:30.355Z,29.35
2023-02-26T04:20:00.126Z,29.45
2023-02-26T04:22:28.009Z,29.47
2023-02-26T04:24:55.911Z,29.42
2023-02-26T04:27:23.873Z,29.39
2023-02-26T04:29:52.028Z,29.11
2023-02-26T04:32:20.029Z,29.45
2023-02-26T04:34:48.020Z,29.40
2023-02-26T04:37:17.284Z,29.48
2023-02-26T04:39:45.450Z,29.22
2023-02-26T04:42:13.421Z,29.37
2023-02-26T04:44:41.296Z,29.47
2023-02-26T04:47:09.181Z,29.30
2023-02-26T04:49:37.443Z,29.17
2023-02-26T04:52:05.363Z,29.58
2023-02-26T04:54:34.626Z,29.48
2023-02-26T04:57:02.550Z,29.04
2023-02-26T04:59:30.700Z,29.52
2023-02-26T05:01:58.670Z,29.01
2023-02-26T05:04:26.923Z,29.53
2023-02-26T05:06:55.855Z,29.33
2023-02-26T05:09:24.033Z,29.24
2023-02-26T05:11:53.366Z,29.15
2023-02-26T05:14:21.402Z,29.05
2023-02-26T05:16:49.304Z,29.30
2023-02-26T05:19:17.817Z,29.12
2023-02-26T05:21:45.712Z,29.51
2023-02-26T05:24:13.557Z,29.17
2023-02-26T05:26:41.492Z,29.56
2023-02-26T05:29:10.821Z,29.11
2023-02-26T05:31:38.748Z,29.40
2023-02-26T05:34:06.676Z,29.11
2023-02-26T05:36:34.583Z,29.33
2023-02-26T05:39:02.748Z,29.45
2023-02-26T05:41:30.666Z,29.12
2023-02-26T05:43:59.106Z,29.42
2023-02-26T05:46:28.815Z,29.20
2023-02-26T05:48:57.264Z,29.19
2023-02-26T05:51:25.137Z,29.15
2023-02-26T05:53:53.019Z,28.98
2023-02-26T05:56:21.018Z,29.34
2023-02-26T05:58:49.208Z,29.36
2023-02-26T06:01:17.100Z,29.00
2023-02-26T06:03:46.420Z,28.98
2023-02-26T06:06:16.194Z,29.28
2023-02-26T06:08:44.384Z,28.91
2023-02-26T06:11:12.688Z,28.93
2023-02-26T06:13:40.629Z,29.00
2023-02-26T06:16:08.820Z,28.80
2023-02-26T06:18:37.116Z,29.21
2023-02-26T06:21:06.808Z,28.91
2023-02-26T06:23:34.743Z,29.21
2023-02-26T06:26:02.709Z,28.99
2023-02-26T06:28:30.592Z,29.02
2023-02-26T06:30:58.587Z,29.21
2023-02-26T06:33:26.500Z,28.97
2023-02-26T06:35:54.377Z,29.22
2023-02-26T06:38:24.005Z,29.13
2023-02-26T06:40:52.181Z,28.88
2023-02-26T06:43:20.060Z,28.79
2023-02-26T06:45:48.109Z,29.09
2023-02-26T06:48:16.354Z,29.26
2023-02-26T06:50:44.308Z,28.89
2023-02-26T06:53:12.188Z,29.04
2023-02-26T06:55:45.529Z,29.10
2023-02-26T06:58:13.428Z,28.94
2023-02-26T07:00:41.593Z,29.15
2023-02-26T07:03:10.998Z,28.67
2023-02-26T07:05:38.872Z,29.29
2023-02-26T07:08:07.016Z,28.70
2023-02-26T07:10:35.229Z,28.98
2023-02-26T07:13:04.481Z,28.92
2023-02-26T07:15:32.604Z,29.15
2023-02-26T07:18:01.048Z,29.16
2023-02-26T07:20:29.539Z,29.04
2023-02-26T07:22:57.572Z,29.21
2023-02-26T07:25:25.636Z,28.96
2023-02-26T07:27:54.659Z,28.67
2023-02-26T07:30:23.993Z,28.94
2023-02-26T07:32:51.953Z,28.68
2023-02-26T07:35:20.034Z,29.09
2023-02-26T07:37:47.916Z,28.96
2023-02-26T07:40:16.262Z,29.18
2023-02-26T07:42:44.104Z,28.98
2023-02-26T07:45:12.377Z,28.82
2023-02-26T07:47:41.765Z,29.03
2023-02-26T07:50:11.844Z,28.66
2023-02-26T07:52:39.702Z,28.94
2023-02-26T07:55:08.296Z,28.80
2023-02-26T07:57:36.270Z,29.16
2023-02-26T08:00:09.724Z,28.92
2023-02-26T08:02:37.816Z,28.58
2023-02-26T08:05:07.355Z,28.65
2023-02-26T08:07:35.284Z,28.85
2023-02-26T08:10:03.437Z,28.82
2023-02-26T08:12:31.410Z,28.67
2023-02-26T08:14:59.296Z,28.92
2023-02-26T08:17:27.352Z,28.85
2023-02-26T08:19:55.555Z,28.64
2023-02-26T08:22:25.030Z,29.03
2023-02-26T08:24:52.946Z,29.06
2023-02-26T08:27:20.862Z,28.65
2023-02-26T08:29:50.331Z,28.49
2023-02-26T08:32:19.790Z,28.96
2023-02-26T08:34:47.909Z,28.93
2023-02-26T08:37:16.050Z,28.49
2023-02-26T08:39:45.638Z,28.96
2023-02-26T08:42:16.344Z,28.47
2023-02-26T08:44:44.241Z,28.88
2023-02-26T08:47:13.610Z,28.99
2023-02-26T08:49:43.214Z,28.75
2023-02-26T08:52:11.123Z,28.47
2023-02-26T08:54:39.074Z,28.52
2023-02-26T08:57:08.300Z,28.78
2023-02-26T08:59:36.473Z,28.45
2023-02-26T09:02:04.429Z,28.73
2023-02-26T09:04:32.369Z,28.52
2023-02-26T09:07:00.268Z,28.80
2023-02-26T09:09:28.441Z,28.84
2023-02-26T09:11:56.294Z,28.88
2023-02-26T09:14:25.565Z,28.86
2023-02-26T09:16:53.477Z,28.85
2023-02-26T09:19:21.734Z,28.80
2023-02-26T09:21:49.635Z,28.58
2023-02-26T09:24:17.561Z,28.78
2023-02-26T09:26:45.504Z,28.47
2023-02-26T09:29:14.482Z,28.35
2023-02-26T09:31:44.042Z,28.38
2023-02-26T09:34:12.617Z,28.79
2023-02-26T09:36:40.523Z,28.72
2023-02-26T09:39:09.806Z,28.45
2023-02-26T09:41:39.745Z,28.58
2023-02-26T09:44:19.306Z,28.61
2023-02-26T09:46:52.344Z,28.48
2023-02-26T09:49:28.427Z,28.33
2023-02-26T09:51:59.442Z,28.58
2023-02-26T09:54:30.101Z,28.91
2023-02-26T09:57:00.252Z,28.46
2023-02-26T09:59:28.949Z,28.54
2023-02-26T10:02:01.024Z,28.80
2023-02-26T10:04:41.220Z,28.69
2023-02-26T10:07:15.723Z,28.55
2023-02-26T10:10:02.680Z,28.44
2023-02-26T10:12:32.341Z,28.26
2023-02-26T10:15:01.376Z,28.80
2023-02-26T10:17:34.899Z,28.34
2023-02-26T10:20:04.513Z,28.63
2023-02-26T10:22:34.698Z,28.40
2023-02-26T10:25:04.500Z,28.74
2023-02-26T10:27:44.162Z,28.40
2023-02-26T10:30:15.720Z,28.79
2023-02-26T10:32:50.922Z,28.32
2023-02-26T10:35:19.583Z,28.53
2023-02-26T10:37:49.770Z,28.48
2023-02-26T10:40:19.320Z,28.57
2023-02-26T10:42:49.687Z,28.29
2023-02-26T10:45:38.704Z,28.45
2023-02-26T10:48:24.924Z,28.30
2023-02-26T10:50:53.763Z,28.71
2023-02-26T10:53:21.944Z,28.43
2023-02-26T10:55:51.500Z,28.65
2023-02-26T10:58:24.183Z,28.78
2023-02-26T11:00:54.202Z,28.36
2023-02-26T11:03:26.189Z,28.53
2023-02-26T11:05:54.110Z,28.56
2023-02-26T11:08:25.172Z,28.39
2023-02-26T11:10:54.252Z,28.37
2023-02-26T11:13:22.719Z,28.54
2023-02-26T11:15:52.231Z,28.34
2023-02-26T11:18:23.135Z,28.80
2023-02-26T11:20:53.760Z,28.75
2023-02-26T11:23:22.459Z,28.32
2023-02-26T11:25:54.645Z,28.66
2023-02-26T11:28:24.286Z,28.66
2023-02-26T11:30:54.338Z,28.38
2023-02-26T11:33:25.975Z,28.27
2023-02-26T11:36:00.371Z,28.13
2023-02-26T11:38:28.577Z,28.26
2023-02-26T11:40:57.765Z,28.29
2023-02-26T11:43:28.388Z,28.33
2023-02-26T11:45:57.288Z,28.15
2023-02-26T11:48:26.578Z,28.48
2023-02-26T11:50:58.215Z,28.07
2023-02-26T11:53:28.317Z,28.37
2023-02-26T11:56:00.934Z,28.19
2023-02-26T11:58:30.954Z,28.32
2023-02-26T12:00:59.852Z,28.56
2023-02-26T12:03:29.298Z,28.19
2023-02-26T12:05:58.565Z,28.19
2023-02-26T12:08:29.285Z,28.13
2023-02-26T12:11:06.454Z,28.08
2023-02-26T12:13:36.645Z,28.41
2023-02-26T12:16:07.337Z,27.92
2023-02-26T12:18:53.681Z,28.23
2023-02-26T12:21:33.347Z,28.38
2023-02-26T12:24:42.849Z,28.41
2023-02-26T12:27:15.265Z,27.99
2023-02-26T12:29:51.845Z,28.04
2023-02-26T12:32:40.975Z,28.07
2023-02-26T12:35:33.693Z,28.47
2023-02-26T12:38:09.791Z,28.03
2023-02-26T12:40:48.460Z,28.14
2023-02-26T12:43:19.676Z,28.29
2023-02-26T12:45:53.851Z,28.42
2023-02-26T12:48:43.606Z,28.11
2023-02-26T12:51:16.693Z,28.41
2023-02-26T12:54:01.206Z,28.36
2023-02-26T12:57:03.044Z,28.31
2023-02-26T12:59:41.575Z,28.33
2023-02-26T13:02:51.363Z,27.93
2023-02-26T13:05:25.294Z,27.89
2023-02-26T13:08:10.766Z,27.94
2023-02-26T13:10:46.321Z,28.35
2023-02-26T13:13:29.298Z,28.32
2023-02-26T13:16:07.613Z,28.03
2023-02-26T13:18:42.221Z,27.96
2023-02-26T13:21:12.429Z,28.02
2023-02-26T13:23:43.887Z,27.90
2023-02-26T13:26:13.128Z,28.17
2023-02-26T13:28:43.623Z,27.76
2023-02-26T13:31:13.758Z,28.16
2023-02-26T13:33:41.723Z,27.96
2023-02-26T13:36:09.862Z,28.22
2023-02-26T13:38:43.453Z,28.04
2023-02-26T13:41:15.980Z,27.97
2023-02-26T13:43:59.356Z,28.07
2023-02-26T13:46:43.926Z,28.19
2023-02-26T13:49:15.671Z,28.23
2023-02-26T13:51:45.612Z,27.95
2023-02-26T13:54:35.293Z,27.93
2023-02-26T13:57:26.289Z,27.77
2023-02-26T13:59:55.986Z,28.17
2023-02-26T14:02:52.116Z,28.06
2023-02-26T14:05:31.608Z,27.90
2023-02-26T14:08:19.320Z,27.88
2023-02-26T14:10:48.037Z,27.94
2023-02-26T14:13:19.389Z,28.40
2023-02-26T14:15:51.460Z,27.70
2023-02-26T14:18:28.689Z,28.13
2023-02-26T14:21:28.222Z,27.90
2023-02-26T14:23:57.814Z,27.90
2023-02-26T14:26:26.578Z,27.65
2023-02-26T14:29:08.140Z,27.89
2023-02-26T14:31:51.907Z,27.91
2023-02-26T14:34:23.114Z,27.94
2023-02-26T14:36:52.872Z,27.94
2023-02-26T14:39:30.380Z,27.88
2023-02-26T14:42:01.388Z,28.14
2023-02-26T14:44:32.145Z,27.83
2023-02-26T14:47:00.412Z,27.81
2023-02-26T14:49:32.151Z,27.90
2023-02-26T14:52:11.321Z,28.08
2023-02-26T14:54:50.335Z,27.88
2023-02-26T14:57:22.999Z,27.64
2023-02-26T15:00:19.066Z,27.67
2023-02-26T15:03:01.915Z,27.87
2023-02-26T15:05:43.429Z,28.10
2023-02-26T15:08:21.623Z,27.90
2023-02-26T15:11:07.366Z,27.69
2023-02-26T15:13:43.391Z,27.83
2023-02-26T15:16:19.926Z,27.78
2023-02-26T15:19:10.897Z,27.90
2023-02-26T15:21:44.741Z,27.63
2023-02-26T15:24:14.446Z,27.60
2023-02-26T15:26:48.051Z,27.64
2023-02-26T15:29:16.039Z,27.71
2023-02-26T15:31:46.345Z,27.82
2023-02-26T15:34:15.113Z,28.07
2023-02-26T15:36:45.372Z,28.04
2023-02-26T15:39:15.925Z,27.76
2023-02-26T15:41:45.324Z,27.46
2023-02-26T15:44:16.547Z,27.78
2023-02-26T15:46:47.172Z,27.47
2023-02-26T15:49:19.108Z,27.75
2023-02-26T15:51:47.290Z,27.88
2023-02-26T15:54:17.609Z,27.88
2023-02-26T15:56:45.559Z,27.90
2023-02-26T15:59:17.237Z,27.66
2023-02-26T16:01:46.650Z,27.43
2023-02-26T16:04:19.031Z,27.81
2023-02-26T16:06:48.359Z,27.91
2023-02-26T16:09:18.170Z,27.69
2023-02-26T16:11:46.107Z,27.63
2023-02-26T16:14:16.994Z,27.35
2023-02-26T16:16:47.565Z,27.87
2023-02-26T16:19:15.920Z,27.81
2023-02-26T16:21:43.797Z,27.47
2023-02-26T16:24:14.962Z,27.62
2023-02-26T16:26:44.167Z,27.79
2023-02-26T16:29:14.258Z,27.62
2023-02-26T16:31:42.518Z,27.36
2023-02-26T16:34:25.469Z,27.88
2023-02-26T16:36:54.464Z,27.65
2023-02-26T16:39:24.367Z,27.40
2023-02-26T16:42:03.467Z,27.87
2023-02-26T16:44:53.362Z,27.38
2023-02-26T16:47:21.905Z,27.51
2023-02-26T16:49:51.708Z,27.65
2023-02-26T16:52:21.050Z,27.66
2023-02-26T16:54:56.854Z,27.89
2023-02-26T16:57:27.553Z,27.78
2023-02-26T16:59:57.217Z,27.71
2023-02-26T17:02:26.196Z,27.48
2023-02-26T17:04:56.152Z,27.55
2023-02-26T17:07:29.228Z,27.55
2023-02-26T17:09:58.752Z,27.35
2023-02-26T17:12:31.988Z,27.43
2023-02-26T17:15:02.002Z,27.83
2023-02-26T17:17:30.202Z,27.38
2023-02-26T17:19:59.787Z,27.31
2023-02-26T17:22:29.025Z,27.67
2023-02-26T17:24:56.987Z,27.19
2023-02-26T17:27:28.255Z,27.67
2023-02-26T17:29:56.215Z,27.33
2023-02-26T17:32:26.700Z,27.83
2023-02-26T17:34:54.783Z,27.76
2023-02-26T17:37:24.143Z,27.47
2023-02-26T17:39:52.410Z,27.31
2023-02-26T17:42:21.408Z,27.67
2023-02-26T17:44:51.195Z,27.58
2023-02-26T17:47:20.562Z,27.71
2023-02-26T17:49:48.897Z,27.58
2023-02-26T17:52:17.287Z,27.44
2023-02-26T17:54:46.539Z,27.55
2023-02-26T17:57:17.066Z,27.79
2023-02-26T17:59:46.183Z,27.30
2023-02-26T18:02:17.086Z,27.78
2023-02-26T18:04:45.351Z,27.30
2023-02-26T18:07:16.322Z,27.66
2023-02-26T18:09:46.504Z,27.23
2023-02-26T18:12:14.816Z,27.29
2023-02-26T18:14:43.063Z,27.30
2023-02-26T18:17:12.886Z,27.26
2023-02-26T18:19:41.395Z,27.38
2023-02-26T18:22:12.480Z,27.47
2023-02-26T18:24:41.370Z,27.54
2023-02-26T18:27:13.744Z,27.49
2023-02-26T18:29:41.660Z,27.36
2023-02-26T18:32:13.404Z,27.70
2023-02-26T18:34:41.423Z,27.49
2023-02-26T18:37:11.368Z,27.30
2023-02-26T18:39:39.304Z,27.44
2023-02-26T18:42:07.276Z,27.71
2023-02-26T18:44:37.911Z,27.49
2023-02-26T18:47:06.264Z,27.70
2023-02-26T18:49:34.463Z,27.66
2023-02-26T18:52:02.605Z,27.68
2023-02-26T18:54:30.861Z,27.60
2023-02-26T18:56:58.788Z,27.66
2023-02-26T18:59:27.044Z,27.39
2023-02-26T19:01:56.415Z,27.65
2023-02-26T19:04:24.472Z,27.46
2023-02-26T19:06:52.372Z,27.60
2023-02-26T19:09:21.261Z,27.45
2023-02-26T19:11:51.523Z,27.60
2023-02-26T19:14:19.471Z,27.51
2023-02-26T19:16:47.401Z,27.38
2023-02-26T19:19:20.215Z,27.38
2023-02-26T19:21:48.216Z,27.49
2023-02-26T19:24:16.248Z,27.41
2023-02-26T19:26:44.316Z,27.25
2023-02-26T19:29:14.628Z,27.08
2023-02-26T19:31:42.790Z,27.47
2023-02-26T19:34:11.204Z,27.45
2023-02-26T19:36:43.452Z,27.19
2023-02-26T19:39:12.781Z,27.17
2023-02-26T19:41:40.702Z,27.30
2023-02-26T19:44:08.637Z,27.08
2023-02-26T19:46:37.085Z,27.53
2023-02-26T19:49:05.251Z,27.58
2023-02-26T19:51:33.319Z,27.56
2023-02-26T19:54:02.600Z,27.29
2023-02-26T19:56:30.637Z,27.17
2023-02-26T19:58:58.896Z,27.55
2023-02-26T20:01:27.212Z,27.29
2023-02-26T20:03:55.516Z,27.33
2023-02-26T20:06:23.491Z,27.50
2023-02-26T20:08:52.520Z,27.37
2023-02-26T20:11:21.930Z,27.61
2023-02-26T20:13:49.841Z,27.67
2023-02-26T20:16:17.800Z,27.32
2023-02-26T20:18:46.715Z,27.25
2023-02-26T20:21:14.702Z,27.56
2023-02-26T20:23:42.654Z,27.50
2023-02-26T20:26:11.931Z,27.55
2023-02-26T20:28:42.341Z,27.20
2023-02-26T20:31:10.422Z,27.12
2023-02-26T20:33:39.454Z,27.37
2023-02-26T20:36:08.570Z,27.63
2023-02-26T20:38:36.775Z,27.19
2023-02-26T20:41:04.958Z,27.75
2023-02-26T20:43:32.904Z,27.13
2023-02-26T20:46:02.276Z,27.34
2023-02-26T20:48:31.141Z,27.65
2023-02-26T20:51:02.207Z,27.36
2023-02-26T20:53:30.126Z,27.17
2023-02-26T20:55:58.028Z,27.16
2023-02-26T20:58:26.409Z,27.55
2023-02-26T21:00:56.483Z,27.18
2023-02-26T21:03:25.933Z,27.42
2023-02-26T21:05:54.202Z,27.37
2023-02-26T21:08:22.575Z,27.54
2023-02-26T21:10:51.353Z,27.44
2023-02-26T21:13:19.316Z,27.31
2023-02-26T21:15:47.281Z,27.56
2023-02-26T21:18:16.133Z,27.44
2023-02-26T21:20:45.770Z,27.38
2023-02-26T21:23:13.715Z,27.54
2023-02-26T21:25:41.933Z,27.37
2023-02-26T21:28:10.137Z,27.49
2023-02-26T21:30:38.053Z,27.63
2023-02-26T21:33:07.056Z,27.19
2023-02-26T21:35:35.242Z,27.34
2023-02-26T21:38:04.509Z,27.18
2023-02-26T21:40:32.723Z,27.25
2023-02-26T21:43:00.648Z,27.45
2023-02-26T21:45:28.705Z,27.34
2023-02-26T21:47:56.633Z,27.01
2023-02-26T21:50:24.866Z,27.57
2023-02-26T21:52:52.749Z,27.15
2023-02-26T21:55:22.010Z,27.24
2023-02-26T21:57:49.891Z,27.44
2023-02-26T22:00:19.369Z,27.45
2023-02-26T22:02:47.357Z,27.58
2023-02-26T22:05:15.408Z,27.57
2023-02-26T22:07:44.436Z,27.13
2023-02-26T22:10:13.491Z,27.34
2023-02-26T22:12:42.833Z,27.31
2023-02-26T22:15:10.963Z,27.10
2023-02-26T22:17:38.917Z,27.31
2023-02-26T22:20:09.846Z,27.58
2023-02-26T22:22:38.094Z,27.38
2023-02-26T22:25:06.429Z,27.13
2023-02-26T22:27:34.479Z,27.07
2023-02-26T22:30:04.168Z,27.42
2023-02-26T22:32:32.115Z,27.19
2023-02-26T22:35:00.061Z,27.29
2023-02-26T22:37:27.952Z,27.09
2023-02-26T22:39:56.685Z,26.95
2023-02-26T22:42:24.645Z,27.24
2023-02-26T22:44:52.592Z,26.93
2023-02-26T22:47:21.892Z,27.36
2023-02-26T22:49:50.258Z,27.04
2023-02-26T22:52:18.156Z,27.42
2023-02-26T22:54:46.610Z,26.87
2023-02-26T22:57:14.802Z,27.30
2023-02-26T22:59:43.034Z,27.44
2023-02-26T23:02:10.901Z,27.46
2023-02-26T23:04:40.675Z,27.37
2023-02-26T23:07:08.691Z,27.39
2023-02-26T23:09:37.246Z,26.98
2023-02-26T23:12:05.583Z,27.13
2023-02-26T23:14:33.499Z,27.04
2023-02-26T23:17:01.398Z,27.45
2023-02-26T23:19:29.686Z,27.05
2023-02-26T23:21:59.031Z,27.51
2023-02-26T23:24:27.307Z,27.10
2023-02-26T23:26:55.220Z,26.94
2023-02-26T23:29:23.225Z,27.45
2023-02-26T23:31:51.371Z,27.05
2023-02-26T23:34:19.340Z,27.16
2023-02-26T23:36:47.245Z,27.09
2023-02-26T23:39:16.806Z,27.22
2023-02-26T23:41:44.718Z,27.05
2023-02-26T23:44:12.614Z,26.90
2023-02-26T23:46:40.545Z,27.03
2023-02-26T23:49:09.599Z,27.27
2023-02-26T23:51:38.373Z,27.08
2023-02-26T23:54:06.390Z,27.21
2023-02-26T23:56:36.730Z,27.21
2023-02-26T23:59:05.259Z,26.97
